Time,TemperatureF,DewpointF,PressureIn,WindDirection,WindDirectionDegrees,WindSpeedMPH,WindSpeedGustMPH,Humidity,HourlyPrecipIn,Conditions,Clouds,dailyrainin,SoftwareType,DateUTC
2013-03-22 00:00:00,27.0,16.4,31.01,North,0,0.0,0.0,64,0.00,,---,0.00,VWS V14.00,2013-03-22 04:00:00,
2013-03-22 00:01:00,26.8,16.2,31.01,North,0,0.0,0.0,64,0.00,,---,0.00,VWS V14.00,2013-03-22 04:01:00,
2013-03-22 00:03:00,26.8,16.2,31.01,North,0,0.0,0.0,64,0.00,,---,0.00,VWS V14.00,2013-03-22 04:03:00,
2013-03-22 00:08:00,26.4,15.9,31.01,North,0,0.0,0.0,64,0.00,,---,0.00,VWS V14.00,2013-03-22 04:08:00,
2013-03-22 00:13:00,26.2,16.1,31.01,North,0,0.0,0.0,65,0.00,,---,0.00,VWS V14.00,2013-03-22 04:13:00,
2013-03-22 00:18:00,26.2,16.4,31.01,North,0,0.0,0.0,66,0.00,,---,0.00,VWS V14.00,2013-03-22 04:18:00,
2013-03-22 00:23:00,26.4,16.6,31.01,North,0,0.0,0.0,66,0.00,,---,0.00,VWS V14.00,2013-03-22 04:23:00,
2013-03-22 00:28:00,26.8,16.2,31.01,North,0,0.0,0.0,64,0.00,,---,0.00,VWS V14.00,2013-03-22 04:28:00,
2013-03-22 00:33:00,27.0,16.1,31.01,North,0,0.0,0.0,63,0.00,,---,0.00,VWS V14.00,2013-03-22 04:33:00,
2013-03-22 00:38:00,27.3,14.1,31.01,North,0,0.0,0.0,57,0.00,,---,0.00,VWS V14.00,2013-03-22 04:38:00,
2013-03-22 00:44:00,27.5,13.1,31.01,North,0,0.0,0.0,54,0.00,,---,0.00,VWS V14.00,2013-03-22 04:44:00,
2013-03-22 00:49:00,27.9,12.5,31.01,North,0,0.0,0.0,52,0.00,,---,0.00,VWS V14.00,2013-03-22 04:49:00,
2013-03-22 00:54:00,28.0,11.8,31.01,North,0,0.0,0.0,50,0.00,,---,0.00,VWS V14.00,2013-03-22 04:54:00,
2013-03-22 00:59:00,28.0,11.4,31.01,North,0,0.0,0.0,49,0.00,,---,0.00,VWS V14.00,2013-03-22 04:59:00,
2013-03-22 01:05:00,28.2,10.1,31.01,North,0,0.0,0.0,46,0.00,,---,0.00,VWS V14.00,2013-03-22 05:05:00,
2013-03-22 01:12:00,28.4,9.3,31.01,North,0,0.0,0.0,44,0.00,,---,0.00,VWS V14.00,2013-03-22 05:12:00,
2013-03-22 01:18:00,28.6,8.9,31.01,North,0,0.0,0.0,43,0.00,,---,0.00,VWS V14.00,2013-03-22 05:18:00,
2013-03-22 01:23:00,28.6,8.4,31.01,North,0,0.0,0.0,42,0.00,,---,0.00,VWS V14.00,2013-03-22 05:23:00,
2013-03-22 01:29:00,28.8,8.6,31.01,North,0,0.0,0.0,42,0.00,,---,0.00,VWS V14.00,2013-03-22 05:29:00,
2013-03-22 01:34:00,28.8,8.6,31.01,North,0,0.0,0.0,42,0.00,,---,0.00,VWS V14.00,2013-03-22 05:34:00,
2013-03-22 01:39:00,28.9,8.2,31.01,North,0,0.0,0.0,41,0.00,,---,0.00,VWS V14.00,2013-03-22 05:39:00,
2013-03-22 01:44:00,28.9,8.2,31.01,North,0,0.0,0.0,41,0.00,,---,0.00,VWS V14.00,2013-03-22 05:44:00,
2013-03-22 01:50:00,29.1,8.4,31.01,North,0,0.0,0.0,41,0.00,,---,0.00,VWS V14.00,2013-03-22 05:50:00,
2013-03-22 01:56:00,29.1,8.4,31.01,North,0,0.0,0.0,41,0.00,,---,0.00,VWS V14.00,2013-03-22 05:56:00,
2013-03-22 02:01:00,28.9,8.2,31.01,North,0,0.0,0.0,41,0.00,,---,0.00,VWS V14.00,2013-03-22 06:01:00,
2013-03-22 02:07:00,28.9,8.2,31.01,North,0,0.0,0.0,41,0.00,,---,0.00,VWS V14.00,2013-03-22 06:07:00,
2013-03-22 02:12:00,28.9,8.2,31.01,North,0,0.0,0.0,41,0.00,,---,0.00,VWS V14.00,2013-03-22 06:12:00,
2013-03-22 02:17:00,28.9,8.2,31.01,North,0,0.0,0.0,41,0.00,,---,0.00,VWS V14.00,2013-03-22 06:17:00,
2013-03-22 02:23:00,28.8,8.0,31.01,North,0,0.0,0.0,41,0.00,,---,0.00,VWS V14.00,2013-03-22 06:23:00,
2013-03-22 02:29:00,28.9,8.2,31.01,North,0,0.0,0.0,41,0.00,,---,0.00,VWS V14.00,2013-03-22 06:29:00,
2013-03-22 02:35:00,28.9,8.2,31.01,North,0,0.0,0.0,41,0.00,,---,0.00,VWS V14.00,2013-03-22 06:35:00,
2013-03-22 02:41:00,28.9,8.2,31.01,North,0,0.0,0.0,41,0.00,,---,0.00,VWS V14.00,2013-03-22 06:41:00,
2013-03-22 02:47:00,28.9,8.2,31.01,North,0,0.0,0.0,41,0.00,,---,0.00,VWS V14.00,2013-03-22 06:47:00,
2013-03-22 02:53:00,28.9,8.2,31.01,North,0,0.0,0.0,41,0.00,,---,0.00,VWS V14.00,2013-03-22 06:53:00,
2013-03-22 02:59:00,28.9,8.2,31.01,North,0,0.0,0.0,41,0.00,,---,0.00,VWS V14.00,2013-03-22 06:59:00,
2013-03-22 03:05:00,28.9,8.2,31.01,North,0,0.0,0.0,41,0.00,,---,0.00,VWS V14.00,2013-03-22 07:05:00,
2013-03-22 03:10:00,28.8,8.0,31.01,North,0,0.0,0.0,41,0.00,,---,0.00,VWS V14.00,2013-03-22 07:10:00,
2013-03-22 03:15:00,28.8,8.0,31.01,North,0,0.0,0.0,41,0.00,,---,0.00,VWS V14.00,2013-03-22 07:15:00,
2013-03-22 03:20:00,28.8,8.6,31.01,North,0,0.0,0.0,42,0.00,,---,0.00,VWS V14.00,2013-03-22 07:20:00,
2013-03-22 03:26:00,28.8,8.6,31.01,North,0,0.0,0.0,42,0.00,,---,0.00,VWS V14.00,2013-03-22 07:26:00,
2013-03-22 03:31:00,28.8,8.6,31.01,North,0,0.0,0.0,42,0.00,,---,0.00,VWS V14.00,2013-03-22 07:31:00,
2013-03-22 03:36:00,28.8,8.6,31.01,North,0,0.0,0.0,42,0.00,,---,0.00,VWS V14.00,2013-03-22 07:36:00,
2013-03-22 03:41:00,28.8,8.6,31.01,North,0,0.0,0.0,42,0.00,,---,0.00,VWS V14.00,2013-03-22 07:41:00,
2013-03-22 03:47:00,28.8,8.0,31.01,North,0,0.0,0.0,41,0.00,,---,0.00,VWS V14.00,2013-03-22 07:47:00,
2013-03-22 03:52:00,28.8,8.6,31.01,North,0,0.0,0.0,42,0.00,,---,0.00,VWS V14.00,2013-03-22 07:52:00,
2013-03-22 03:57:00,28.8,8.0,31.01,North,0,0.0,0.0,41,0.00,,---,0.00,VWS V14.00,2013-03-22 07:57:00,
2013-03-22 04:02:00,28.8,8.6,31.01,North,0,0.0,0.0,42,0.00,,---,0.00,VWS V14.00,2013-03-22 08:02:00,
2013-03-22 04:07:00,28.8,8.0,31.01,North,0,0.0,0.0,41,0.00,,---,0.00,VWS V14.00,2013-03-22 08:07:00,
2013-03-22 04:13:00,28.8,8.6,31.01,North,0,0.0,0.0,42,0.00,,---,0.00,VWS V14.00,2013-03-22 08:13:00,
2013-03-22 04:18:00,28.6,8.4,31.01,North,0,0.0,0.0,42,0.00,,---,0.00,VWS V14.00,2013-03-22 08:18:00,
2013-03-22 04:23:00,28.6,8.4,31.01,North,0,0.0,0.0,42,0.00,,---,0.00,VWS V14.00,2013-03-22 08:23:00,
2013-03-22 04:28:00,28.6,8.4,31.01,North,0,0.0,0.0,42,0.00,,---,0.00,VWS V14.00,2013-03-22 08:28:00,
2013-03-22 04:34:00,28.6,8.4,31.01,North,0,0.0,0.0,42,0.00,,---,0.00,VWS V14.00,2013-03-22 08:34:00,
2013-03-22 04:40:00,28.4,8.2,31.01,North,0,0.0,0.0,42,0.00,,---,0.00,VWS V14.00,2013-03-22 08:40:00,
2013-03-22 04:45:00,28.2,8.1,31.01,North,0,0.0,0.0,42,0.00,,---,0.00,VWS V14.00,2013-03-22 08:45:00,
2013-03-22 04:50:00,28.2,8.1,31.01,North,0,0.0,0.0,42,0.00,,---,0.00,VWS V14.00,2013-03-22 08:50:00,
2013-03-22 04:56:00,28.0,7.9,31.01,North,0,0.0,0.0,42,0.00,,---,0.00,VWS V14.00,2013-03-22 08:56:00,
2013-03-22 05:01:00,27.9,7.8,31.01,North,0,0.0,0.0,42,0.00,,---,0.00,VWS V14.00,2013-03-22 09:01:00,
2013-03-22 05:07:00,27.9,7.8,31.01,North,0,0.0,0.0,42,0.00,,---,0.00,VWS V14.00,2013-03-22 09:07:00,
2013-03-22 05:13:00,27.7,7.6,31.01,North,0,0.0,0.0,42,0.00,,---,0.00,VWS V14.00,2013-03-22 09:13:00,
2013-03-22 05:19:00,27.5,7.4,31.01,North,0,0.0,0.0,42,0.00,,---,0.00,VWS V14.00,2013-03-22 09:19:00,
2013-03-22 05:25:00,27.3,7.8,31.01,North,0,0.0,0.0,43,0.00,,---,0.00,VWS V14.00,2013-03-22 09:25:00,
2013-03-22 05:30:00,27.1,7.6,31.01,North,0,0.0,0.0,43,0.00,,---,0.00,VWS V14.00,2013-03-22 09:30:00,
2013-03-22 05:35:00,27.0,7.5,31.01,North,0,0.0,0.0,43,0.00,,---,0.00,VWS V14.00,2013-03-22 09:35:00,
2013-03-22 05:40:00,27.0,6.9,31.01,North,0,0.0,0.0,42,0.00,,---,0.00,VWS V14.00,2013-03-22 09:40:00,
2013-03-22 05:47:00,27.0,6.9,31.01,North,0,0.0,0.0,42,0.00,,---,0.00,VWS V14.00,2013-03-22 09:47:00,
2013-03-22 05:53:00,26.8,7.3,31.01,North,0,0.0,0.0,43,0.00,,---,0.00,VWS V14.00,2013-03-22 09:53:00,
2013-03-22 05:58:00,26.6,7.1,31.01,North,0,0.0,0.0,43,0.00,,---,0.00,VWS V14.00,2013-03-22 09:58:00,
2013-03-22 06:03:00,26.4,7.0,31.01,North,0,0.0,0.0,43,0.00,,---,0.00,VWS V14.00,2013-03-22 10:03:00,
2013-03-22 06:09:00,26.4,7.0,31.01,North,0,0.0,0.0,43,0.00,,---,0.00,VWS V14.00,2013-03-22 10:09:00,
2013-03-22 06:15:00,26.4,7.0,31.01,North,0,0.0,0.0,43,0.00,,---,0.00,VWS V14.00,2013-03-22 10:15:00,
2013-03-22 06:20:00,26.6,7.1,31.01,North,0,0.0,0.0,43,0.00,,---,0.00,VWS V14.00,2013-03-22 10:20:00,
2013-03-22 06:25:00,26.2,6.8,31.01,North,0,0.0,0.0,43,0.00,,---,0.00,VWS V14.00,2013-03-22 10:25:00,
2013-03-22 06:31:00,26.1,6.6,31.01,North,0,0.0,0.0,43,0.00,,---,0.00,VWS V14.00,2013-03-22 10:31:00,
2013-03-22 06:37:00,25.9,7.0,31.01,North,0,0.0,0.0,44,0.00,,---,0.00,VWS V14.00,2013-03-22 10:37:00,
2013-03-22 06:43:00,25.9,7.0,31.01,North,0,0.0,0.0,44,0.00,,---,0.00,VWS V14.00,2013-03-22 10:43:00,
2013-03-22 06:48:00,26.1,7.2,31.01,North,0,0.0,0.0,44,0.00,,---,0.00,VWS V14.00,2013-03-22 10:48:00,
2013-03-22 06:54:00,26.1,7.2,31.01,North,0,0.0,0.0,44,0.00,,---,0.00,VWS V14.00,2013-03-22 10:54:00,
2013-03-22 07:00:00,26.1,7.2,31.01,North,0,0.0,0.0,44,0.00,,---,0.00,VWS V14.00,2013-03-22 11:00:00,
2013-03-22 07:05:00,25.9,6.5,31.01,North,0,0.0,0.0,43,0.00,,---,0.00,VWS V14.00,2013-03-22 11:05:00,
2013-03-22 07:10:00,25.9,6.5,31.01,North,0,0.0,0.0,43,0.00,,---,0.00,VWS V14.00,2013-03-22 11:10:00,
2013-03-22 07:15:00,25.7,6.3,31.01,North,0,0.0,0.0,43,0.00,,---,0.00,VWS V14.00,2013-03-22 11:15:00,
2013-03-22 07:21:00,25.7,6.3,31.01,North,0,0.0,0.0,43,0.00,,---,0.00,VWS V14.00,2013-03-22 11:21:00,
2013-03-22 07:27:00,26.1,6.6,31.01,North,0,0.0,0.0,43,0.00,,---,0.00,VWS V14.00,2013-03-22 11:27:00,
2013-03-22 07:32:00,26.4,7.0,31.01,North,0,0.0,0.0,43,0.00,,---,0.00,VWS V14.00,2013-03-22 11:32:00,
2013-03-22 07:38:00,26.8,6.8,31.01,North,0,0.0,0.0,42,0.00,,---,0.00,VWS V14.00,2013-03-22 11:38:00,
2013-03-22 07:44:00,28.2,8.1,31.01,North,0,0.0,0.0,42,0.00,,---,0.00,VWS V14.00,2013-03-22 11:44:00,
2013-03-22 07:50:00,29.3,8.5,31.01,North,0,0.0,0.0,41,0.00,,---,0.00,VWS V14.00,2013-03-22 11:50:00,
2013-03-22 07:55:00,29.8,9.0,31.01,North,0,0.0,0.0,41,0.00,,---,0.00,VWS V14.00,2013-03-22 11:55:00,
2013-03-22 08:00:00,29.1,8.4,31.01,North,0,0.0,0.0,41,0.00,,---,0.00,VWS V14.00,2013-03-22 12:00:00,
2013-03-22 08:08:00,30.6,9.1,31.01,North,0,0.0,0.0,40,0.00,,---,0.00,VWS V14.00,2013-03-22 12:08:00,
2013-03-22 08:13:00,30.4,8.4,31.01,North,0,0.0,0.0,39,0.00,,---,0.00,VWS V14.00,2013-03-22 12:13:00,
2013-03-22 08:18:00,34.0,10.5,31.01,North,0,0.0,0.0,37,0.00,,---,0.00,VWS V14.00,2013-03-22 12:18:00,
2013-03-22 08:23:00,37.9,12.7,31.01,North,0,0.0,0.0,35,0.00,,---,0.00,VWS V14.00,2013-03-22 12:23:00,
2013-03-22 08:29:00,43.2,14.6,31.01,North,0,0.0,0.0,31,0.00,,---,0.00,VWS V14.00,2013-03-22 12:29:00,
2013-03-22 08:34:00,41.5,12.4,31.01,North,0,0.0,0.0,30,0.00,,---,0.00,VWS V14.00,2013-03-22 12:34:00,
2013-03-22 08:40:00,39.0,11.0,31.01,North,0,0.0,0.0,31,0.00,,---,0.00,VWS V14.00,2013-03-22 12:40:00,
2013-03-22 08:45:00,38.5,10.5,31.01,North,0,0.0,0.0,31,0.00,,---,0.00,VWS V14.00,2013-03-22 12:45:00,
2013-03-22 08:50:00,42.3,12.3,31.01,North,0,0.0,0.0,29,0.00,,---,0.00,VWS V14.00,2013-03-22 12:50:00,
2013-03-22 08:57:00,37.9,9.3,31.01,North,0,0.0,0.0,30,0.00,,---,0.00,VWS V14.00,2013-03-22 12:57:00,
2013-03-22 09:03:00,39.4,10.5,31.01,North,0,0.0,0.0,30,0.00,,---,0.00,VWS V14.00,2013-03-22 13:03:00,
2013-03-22 09:08:00,39.2,10.4,31.01,North,0,0.0,0.0,30,0.00,,---,0.00,VWS V14.00,2013-03-22 13:08:00,
2013-03-22 09:13:00,40.5,11.5,31.01,North,0,0.0,0.0,30,0.00,,---,0.00,VWS V14.00,2013-03-22 13:13:00,
2013-03-22 09:19:00,41.7,11.8,31.01,North,0,0.0,0.0,29,0.00,,---,0.00,VWS V14.00,2013-03-22 13:19:00,
2013-03-22 09:25:00,47.7,16.2,31.01,North,0,0.0,0.0,28,0.00,,---,0.00,VWS V14.00,2013-03-22 13:25:00,
2013-03-22 09:30:00,49.1,16.6,31.01,North,0,0.0,0.0,27,0.00,,---,0.00,VWS V14.00,2013-03-22 13:30:00,
2013-03-22 09:36:00,44.8,13.7,31.01,North,0,0.0,0.0,28,0.00,,---,0.00,VWS V14.00,2013-03-22 13:36:00,
2013-03-22 09:42:00,39.7,10.1,31.01,North,0,0.0,0.0,29,0.00,,---,0.00,VWS V14.00,2013-03-22 13:42:00,
2013-03-22 09:48:00,38.1,8.7,31.01,North,0,0.0,0.0,29,0.00,,---,0.00,VWS V14.00,2013-03-22 13:48:00,
2013-03-22 09:53:00,38.7,9.9,31.01,North,0,0.0,0.0,30,0.00,,---,0.00,VWS V14.00,2013-03-22 13:53:00,
2013-03-22 09:58:00,38.8,10.1,31.01,North,0,0.0,0.0,30,0.00,,---,0.00,VWS V14.00,2013-03-22 13:58:00,
2013-03-22 10:04:00,37.9,9.3,31.01,North,0,0.0,0.0,30,0.00,,---,0.00,VWS V14.00,2013-03-22 14:04:00,
2013-03-22 10:10:00,38.5,9.0,31.01,North,0,0.0,0.0,29,0.00,,---,0.00,VWS V14.00,2013-03-22 14:10:00,
2013-03-22 10:15:00,39.0,10.2,31.01,North,0,0.0,0.0,30,0.00,,---,0.00,VWS V14.00,2013-03-22 14:15:00,
2013-03-22 10:20:00,39.4,9.8,31.01,North,0,0.0,0.0,29,0.00,,---,0.00,VWS V14.00,2013-03-22 14:20:00,
2013-03-22 10:26:00,43.0,12.9,31.01,North,0,0.0,0.0,29,0.00,,---,0.00,VWS V14.00,2013-03-22 14:26:00,
2013-03-22 10:31:00,45.1,14.0,31.01,North,0,0.0,0.0,28,0.00,,---,0.00,VWS V14.00,2013-03-22 14:31:00,
2013-03-22 10:37:00,43.0,12.1,31.01,North,0,0.0,0.0,28,0.00,,---,0.00,VWS V14.00,2013-03-22 14:37:00,
2013-03-22 10:42:00,42.8,12.0,31.01,North,0,0.0,0.0,28,0.00,,---,0.00,VWS V14.00,2013-03-22 14:42:00,
2013-03-22 10:48:00,44.2,13.2,31.01,North,0,0.0,0.0,28,0.00,,---,0.00,VWS V14.00,2013-03-22 14:48:00,
2013-03-22 10:54:00,43.9,12.9,31.01,North,0,0.0,0.0,28,0.00,,---,0.00,VWS V14.00,2013-03-22 14:54:00,
2013-03-22 11:00:00,43.3,12.4,31.01,North,0,0.0,0.0,28,0.00,,---,0.00,VWS V14.00,2013-03-22 15:00:00,
2013-03-22 11:05:00,46.0,14.8,31.01,North,0,0.0,0.0,28,0.00,,---,0.00,VWS V14.00,2013-03-22 15:05:00,
2013-03-22 11:11:00,43.5,12.6,31.01,North,0,0.0,0.0,28,0.00,,---,0.00,VWS V14.00,2013-03-22 15:11:00,
2013-03-22 11:17:00,41.5,10.9,31.01,North,0,0.0,0.0,28,0.00,,---,0.00,VWS V14.00,2013-03-22 15:17:00,
2013-03-22 11:23:00,40.6,10.1,31.01,North,0,0.0,0.0,28,0.00,,---,0.00,VWS V14.00,2013-03-22 15:23:00,
2013-03-22 11:28:00,40.6,10.1,31.01,North,0,0.0,0.0,28,0.00,,---,0.00,VWS V14.00,2013-03-22 15:28:00,
2013-03-22 11:34:00,41.5,10.9,31.01,North,0,0.0,0.0,28,0.00,,---,0.00,VWS V14.00,2013-03-22 15:34:00,
2013-03-22 11:40:00,41.0,10.4,31.01,North,0,0.0,0.0,28,0.00,,---,0.00,VWS V14.00,2013-03-22 15:40:00,
2013-03-22 11:45:00,41.2,10.6,31.01,North,0,0.0,0.0,28,0.00,,---,0.00,VWS V14.00,2013-03-22 15:45:00,
2013-03-22 11:50:00,41.9,11.2,31.01,North,0,0.0,0.0,28,0.00,,---,0.00,VWS V14.00,2013-03-22 15:50:00,
2013-03-22 11:55:00,41.2,10.6,31.01,North,0,0.0,0.0,28,0.00,,---,0.00,VWS V14.00,2013-03-22 15:55:00,
2013-03-22 12:01:00,41.2,10.6,31.01,North,0,0.0,0.0,28,0.00,,---,0.00,VWS V14.00,2013-03-22 16:01:00,
2013-03-22 12:07:00,42.1,11.3,31.01,North,0,0.0,0.0,28,0.00,,---,0.00,VWS V14.00,2013-03-22 16:07:00,
2013-03-22 12:13:00,42.8,12.0,31.01,North,0,0.0,0.0,28,0.00,,---,0.00,VWS V14.00,2013-03-22 16:13:00,
2013-03-22 12:19:00,43.5,12.6,31.01,North,0,0.0,0.0,28,0.00,,---,0.00,VWS V14.00,2013-03-22 16:19:00,
2013-03-22 12:25:00,42.1,11.3,31.01,North,0,0.0,0.0,28,0.00,,---,0.00,VWS V14.00,2013-03-22 16:25:00,
2013-03-22 12:30:00,42.4,11.7,31.01,North,0,0.0,0.0,28,0.00,,---,0.00,VWS V14.00,2013-03-22 16:30:00,
2013-03-22 12:35:00,42.4,11.7,31.01,North,0,0.0,0.0,28,0.00,,---,0.00,VWS V14.00,2013-03-22 16:35:00,
2013-03-22 12:40:00,41.0,10.4,31.01,North,0,0.0,0.0,28,0.00,,---,0.00,VWS V14.00,2013-03-22 16:40:00,
2013-03-22 12:46:00,43.3,12.4,31.01,North,0,0.0,0.0,28,0.00,,---,0.00,VWS V14.00,2013-03-22 16:46:00,
2013-03-22 12:52:00,42.6,11.8,31.01,North,0,0.0,0.0,28,0.00,,---,0.00,VWS V14.00,2013-03-22 16:52:00,
2013-03-22 12:57:00,44.1,13.1,31.01,North,0,0.0,0.0,28,0.00,,---,0.00,VWS V14.00,2013-03-22 16:57:00,
2013-03-22 13:03:00,45.1,13.2,31.01,North,0,0.0,0.0,27,0.00,,---,0.00,VWS V14.00,2013-03-22 17:03:00,
2013-03-22 13:09:00,45.9,13.8,31.01,North,0,0.0,0.0,27,0.00,,---,0.00,VWS V14.00,2013-03-22 17:09:00,
2013-03-22 13:15:00,45.3,13.3,31.01,North,0,0.0,0.0,27,0.00,,---,0.00,VWS V14.00,2013-03-22 17:15:00,
2013-03-22 13:20:00,46.2,14.1,31.01,North,0,0.0,0.0,27,0.00,,---,0.00,VWS V14.00,2013-03-22 17:20:00,
2013-03-22 13:25:00,45.1,13.2,31.01,North,0,0.0,0.0,27,0.00,,---,0.00,VWS V14.00,2013-03-22 17:25:00,
2013-03-22 13:30:00,46.9,14.7,31.01,North,0,0.0,0.0,27,0.00,,---,0.00,VWS V14.00,2013-03-22 17:30:00,
2013-03-22 13:36:00,47.1,14.9,31.01,North,0,0.0,0.0,27,0.00,,---,0.00,VWS V14.00,2013-03-22 17:36:00,
2013-03-22 13:42:00,46.4,14.2,31.01,North,0,0.0,0.0,27,0.00,,---,0.00,VWS V14.00,2013-03-22 17:42:00,
2013-03-22 13:47:00,44.8,12.9,31.01,North,0,0.0,0.0,27,0.00,,---,0.00,VWS V14.00,2013-03-22 17:47:00,
2013-03-22 13:52:00,44.4,13.4,31.01,North,0,0.0,0.0,28,0.00,,---,0.00,VWS V14.00,2013-03-22 17:52:00,
2013-03-22 13:58:00,43.3,12.4,31.01,North,0,0.0,0.0,28,0.00,,---,0.00,VWS V14.00,2013-03-22 17:58:00,
2013-03-22 14:04:00,43.2,12.3,31.01,North,0,0.0,0.0,28,0.00,,---,0.00,VWS V14.00,2013-03-22 18:04:00,
2013-03-22 14:10:00,42.1,11.3,31.01,North,0,0.0,0.0,28,0.00,,---,0.00,VWS V14.00,2013-03-22 18:10:00,
2013-03-22 14:15:00,41.4,10.7,31.01,North,0,0.0,0.0,28,0.00,,---,0.00,VWS V14.00,2013-03-22 18:15:00,
2013-03-22 14:21:00,41.4,10.7,31.01,North,0,0.0,0.0,28,0.00,,---,0.00,VWS V14.00,2013-03-22 18:21:00,
2013-03-22 14:26:00,41.4,10.7,31.01,North,0,0.0,0.0,28,0.00,,---,0.00,VWS V14.00,2013-03-22 18:26:00,
2013-03-22 14:32:00,41.0,10.4,31.01,North,0,0.0,0.0,28,0.00,,---,0.00,VWS V14.00,2013-03-22 18:32:00,
2013-03-22 14:37:00,40.3,10.6,31.01,North,0,0.0,0.0,29,0.00,,---,0.00,VWS V14.00,2013-03-22 18:37:00,
2013-03-22 14:43:00,40.6,10.9,31.01,North,0,0.0,0.0,29,0.00,,---,0.00,VWS V14.00,2013-03-22 18:43:00,
2013-03-22 14:49:00,41.7,11.8,31.01,North,0,0.0,0.0,29,0.00,,---,0.00,VWS V14.00,2013-03-22 18:49:00,
2013-03-22 14:55:00,43.7,12.8,31.01,North,0,0.0,0.0,28,0.00,,---,0.00,VWS V14.00,2013-03-22 18:55:00,
2013-03-22 15:00:00,43.9,12.9,31.01,North,0,0.0,0.0,28,0.00,,---,0.00,VWS V14.00,2013-03-22 19:00:00,
2013-03-22 15:06:00,43.3,12.4,31.01,North,0,0.0,0.0,28,0.00,,---,0.00,VWS V14.00,2013-03-22 19:06:00,
2013-03-22 15:11:00,43.5,12.6,31.01,North,0,0.0,0.0,28,0.00,,---,0.00,VWS V14.00,2013-03-22 19:11:00,
2013-03-22 15:17:00,42.1,11.3,31.01,North,0,0.0,0.0,28,0.00,,---,0.00,VWS V14.00,2013-03-22 19:17:00,
2013-03-22 15:22:00,41.5,10.9,31.01,North,0,0.0,0.0,28,0.00,,---,0.00,VWS V14.00,2013-03-22 19:22:00,
2013-03-22 15:27:00,42.4,11.7,31.01,North,0,0.0,0.0,28,0.00,,---,0.00,VWS V14.00,2013-03-22 19:27:00,
2013-03-22 15:33:00,41.9,11.2,31.01,North,0,0.0,0.0,28,0.00,,---,0.00,VWS V14.00,2013-03-22 19:33:00,
2013-03-22 15:38:00,42.1,11.3,31.01,North,0,0.0,0.0,28,0.00,,---,0.00,VWS V14.00,2013-03-22 19:38:00,
2013-03-22 15:43:00,41.4,10.7,31.01,North,0,0.0,0.0,28,0.00,,---,0.00,VWS V14.00,2013-03-22 19:43:00,
2013-03-22 15:48:00,40.5,10.7,31.01,North,0,0.0,0.0,29,0.00,,---,0.00,VWS V14.00,2013-03-22 19:48:00,
2013-03-22 15:54:00,41.0,10.4,31.01,North,0,0.0,0.0,28,0.00,,---,0.00,VWS V14.00,2013-03-22 19:54:00,
2013-03-22 15:59:00,41.7,11.0,31.01,North,0,0.0,0.0,28,0.00,,---,0.00,VWS V14.00,2013-03-22 19:59:00,
2013-03-22 16:04:00,40.6,10.1,31.01,North,0,0.0,0.0,28,0.00,,---,0.00,VWS V14.00,2013-03-22 20:04:00,
2013-03-22 16:09:00,41.5,10.9,31.01,North,0,0.0,0.0,28,0.00,,---,0.00,VWS V14.00,2013-03-22 20:09:00,
2013-03-22 16:14:00,40.8,11.0,31.01,North,0,0.0,0.0,29,0.00,,---,0.00,VWS V14.00,2013-03-22 20:14:00,
2013-03-22 16:19:00,40.1,10.4,31.01,North,0,0.0,0.0,29,0.00,,---,0.00,VWS V14.00,2013-03-22 20:19:00,
2013-03-22 16:25:00,39.7,10.1,31.01,North,0,0.0,0.0,29,0.00,,---,0.00,VWS V14.00,2013-03-22 20:25:00,
2013-03-22 16:30:00,39.2,9.6,31.01,North,0,0.0,0.0,29,0.00,,---,0.00,VWS V14.00,2013-03-22 20:30:00,
2013-03-22 16:35:00,39.2,9.6,31.01,North,0,0.0,0.0,29,0.00,,---,0.00,VWS V14.00,2013-03-22 20:35:00,
2013-03-22 16:41:00,38.8,9.3,31.01,North,0,0.0,0.0,29,0.00,,---,0.00,VWS V14.00,2013-03-22 20:41:00,
2013-03-22 16:46:00,38.8,9.3,31.01,North,0,0.0,0.0,29,0.00,,---,0.00,VWS V14.00,2013-03-22 20:46:00,
2013-03-22 16:52:00,38.7,9.2,31.01,North,0,0.0,0.0,29,0.00,,---,0.00,VWS V14.00,2013-03-22 20:52:00,
2013-03-22 16:57:00,38.5,9.0,31.01,North,0,0.0,0.0,29,0.00,,---,0.00,VWS V14.00,2013-03-22 20:57:00,
2013-03-22 17:03:00,38.5,9.0,31.01,North,0,0.0,0.0,29,0.00,,---,0.00,VWS V14.00,2013-03-22 21:03:00,
2013-03-22 17:09:00,38.3,9.6,31.01,North,0,0.0,0.0,30,0.00,,---,0.00,VWS V14.00,2013-03-22 21:09:00,
2013-03-22 17:15:00,37.9,9.3,31.01,North,0,0.0,0.0,30,0.00,,---,0.00,VWS V14.00,2013-03-22 21:15:00,
2013-03-22 17:20:00,37.6,9.0,31.01,North,0,0.0,0.0,30,0.00,,---,0.00,VWS V14.00,2013-03-22 21:20:00,
2013-03-22 17:25:00,37.8,9.1,31.01,North,0,0.0,0.0,30,0.00,,---,0.00,VWS V14.00,2013-03-22 21:25:00,
2013-03-22 17:31:00,37.6,9.7,31.01,North,0,0.0,0.0,31,0.00,,---,0.00,VWS V14.00,2013-03-22 21:31:00,
2013-03-22 17:38:00,37.0,9.2,31.01,North,0,0.0,0.0,31,0.00,,---,0.00,VWS V14.00,2013-03-22 21:38:00,
2013-03-22 17:43:00,36.7,8.9,31.01,North,0,0.0,0.0,31,0.00,,---,0.00,VWS V14.00,2013-03-22 21:43:00,
2013-03-22 17:48:00,36.5,9.5,31.01,North,0,0.0,0.0,32,0.00,,---,0.00,VWS V14.00,2013-03-22 21:48:00,
2013-03-22 17:54:00,36.1,9.1,31.01,North,0,0.0,0.0,32,0.00,,---,0.00,VWS V14.00,2013-03-22 21:54:00,
2013-03-22 18:00:00,35.8,8.8,31.01,North,0,0.0,0.0,32,0.00,,---,0.00,VWS V14.00,2013-03-22 22:00:00,
2013-03-22 18:05:00,35.8,8.8,31.01,North,0,0.0,0.0,32,0.00,,---,0.00,VWS V14.00,2013-03-22 22:05:00,
2013-03-22 18:10:00,35.4,8.5,31.01,North,0,0.0,0.0,32,0.00,,---,0.00,VWS V14.00,2013-03-22 22:10:00,
2013-03-22 18:16:00,35.2,8.4,31.01,North,0,0.0,0.0,32,0.00,,---,0.00,VWS V14.00,2013-03-22 22:16:00,
2013-03-22 18:21:00,35.2,8.4,31.01,North,0,0.0,0.0,32,0.00,,---,0.00,VWS V14.00,2013-03-22 22:21:00,
2013-03-22 18:26:00,35.4,8.5,31.01,North,0,0.0,0.0,32,0.00,,---,0.00,VWS V14.00,2013-03-22 22:26:00,
2013-03-22 18:32:00,35.4,8.5,31.01,North,0,0.0,0.0,32,0.00,,---,0.00,VWS V14.00,2013-03-22 22:32:00,
2013-03-22 18:38:00,35.1,8.2,31.01,North,0,0.0,0.0,32,0.00,,---,0.00,VWS V14.00,2013-03-22 22:38:00,
2013-03-22 18:44:00,34.9,8.7,31.01,North,0,0.0,0.0,33,0.00,,---,0.00,VWS V14.00,2013-03-22 22:44:00,
2013-03-22 18:50:00,34.7,8.6,31.01,North,0,0.0,0.0,33,0.00,,---,0.00,VWS V14.00,2013-03-22 22:50:00,
2013-03-22 18:55:00,34.5,8.4,31.01,North,0,0.0,0.0,33,0.00,,---,0.00,VWS V14.00,2013-03-22 22:55:00,
2013-03-22 19:01:00,34.3,8.2,31.01,North,0,0.0,0.0,33,0.00,,---,0.00,VWS V14.00,2013-03-22 23:01:00,
2013-03-22 19:06:00,34.2,8.1,31.01,North,0,0.0,0.0,33,0.00,,---,0.00,VWS V14.00,2013-03-22 23:06:00,
2013-03-22 19:12:00,34.0,8.6,31.01,North,0,0.0,0.0,34,0.00,,---,0.00,VWS V14.00,2013-03-22 23:12:00,
2013-03-22 19:17:00,33.8,8.4,31.01,North,0,0.0,0.0,34,0.00,,---,0.00,VWS V14.00,2013-03-22 23:17:00,
2013-03-22 19:23:00,33.6,8.9,31.01,North,0,0.0,0.0,35,0.00,,---,0.00,VWS V14.00,2013-03-22 23:23:00,
2013-03-22 19:29:00,33.4,9.4,31.01,North,0,0.0,0.0,36,0.00,,---,0.00,VWS V14.00,2013-03-22 23:29:00,
2013-03-22 19:35:00,33.3,9.2,31.01,North,0,0.0,0.0,36,0.00,,---,0.00,VWS V14.00,2013-03-22 23:35:00,
2013-03-22 19:40:00,33.1,9.1,31.01,North,0,0.0,0.0,36,0.00,,---,0.00,VWS V14.00,2013-03-22 23:40:00,
2013-03-22 19:45:00,33.1,10.2,31.01,North,0,0.0,0.0,38,0.00,,---,0.00,VWS V14.00,2013-03-22 23:45:00,
2013-03-22 19:51:00,33.1,10.8,31.01,North,0,0.0,0.0,39,0.00,,---,0.00,VWS V14.00,2013-03-22 23:51:00,
2013-03-22 19:56:00,32.9,11.2,31.01,North,0,0.0,0.0,40,0.00,,---,0.00,VWS V14.00,2013-03-22 23:56:00,
2013-03-22 20:01:00,32.9,11.2,31.01,North,0,0.0,0.0,40,0.00,,---,0.00,VWS V14.00,2013-03-23 00:01:00,
2013-03-22 20:07:00,33.1,11.4,31.01,North,0,0.0,0.0,40,0.00,,---,0.00,VWS V14.00,2013-03-23 00:07:00,
2013-03-22 20:13:00,32.9,11.8,31.01,North,0,0.0,0.0,41,0.00,,---,0.00,VWS V14.00,2013-03-23 00:13:00,
2013-03-22 20:18:00,32.7,11.6,31.01,North,0,0.0,0.0,41,0.00,,---,0.00,VWS V14.00,2013-03-23 00:18:00,
2013-03-22 20:23:00,32.7,11.6,31.01,North,0,0.0,0.0,41,0.00,,---,0.00,VWS V14.00,2013-03-23 00:23:00,
2013-03-22 20:28:00,32.7,11.6,31.01,North,0,0.0,0.0,41,0.00,,---,0.00,VWS V14.00,2013-03-23 00:28:00,
2013-03-22 20:33:00,32.7,11.6,31.01,North,0,0.0,0.0,41,0.00,,---,0.00,VWS V14.00,2013-03-23 00:33:00,
2013-03-22 20:39:00,32.5,11.5,31.01,North,0,0.0,0.0,41,0.00,,---,0.00,VWS V14.00,2013-03-23 00:39:00,
2013-03-22 20:44:00,32.4,11.3,31.01,North,0,0.0,0.0,41,0.00,,---,0.00,VWS V14.00,2013-03-23 00:44:00,
2013-03-22 20:49:00,32.2,11.1,31.01,North,0,0.0,0.0,41,0.00,,---,0.00,VWS V14.00,2013-03-23 00:49:00,
2013-03-22 20:54:00,32.2,11.1,31.01,North,0,0.0,0.0,41,0.00,,---,0.00,VWS V14.00,2013-03-23 00:54:00,
2013-03-22 20:59:00,32.0,11.0,31.01,North,0,0.0,0.0,41,0.00,,---,0.00,VWS V14.00,2013-03-23 00:59:00,
2013-03-22 21:05:00,31.8,10.8,31.01,North,0,0.0,0.0,41,0.00,,---,0.00,VWS V14.00,2013-03-23 01:05:00,
2013-03-22 21:10:00,31.6,10.6,31.01,North,0,0.0,0.0,41,0.00,,---,0.00,VWS V14.00,2013-03-23 01:10:00,
2013-03-22 21:15:00,32.0,10.4,31.01,North,0,0.0,0.0,40,0.00,,---,0.00,VWS V14.00,2013-03-23 01:15:00,
2013-03-22 21:21:00,31.8,10.3,31.01,North,0,0.0,0.0,40,0.00,,---,0.00,VWS V14.00,2013-03-23 01:21:00,
2013-03-22 21:26:00,31.8,10.3,31.01,North,0,0.0,0.0,40,0.00,,---,0.00,VWS V14.00,2013-03-23 01:26:00,
2013-03-22 21:32:00,31.6,10.1,31.01,North,0,0.0,0.0,40,0.00,,---,0.00,VWS V14.00,2013-03-23 01:32:00,
2013-03-22 21:37:00,31.5,9.4,31.01,North,0,0.0,0.0,39,0.00,,---,0.00,VWS V14.00,2013-03-23 01:37:00,
2013-03-22 21:42:00,31.1,9.6,31.01,North,0,0.0,0.0,40,0.00,,---,0.00,VWS V14.00,2013-03-23 01:42:00,
2013-03-22 21:48:00,30.9,9.4,31.01,North,0,0.0,0.0,40,0.00,,---,0.00,VWS V14.00,2013-03-23 01:48:00,
2013-03-22 21:53:00,30.7,9.3,31.01,North,0,0.0,0.0,40,0.00,,---,0.00,VWS V14.00,2013-03-23 01:53:00,
2013-03-22 21:58:00,30.6,9.1,31.01,North,0,0.0,0.0,40,0.00,,---,0.00,VWS V14.00,2013-03-23 01:58:00,
2013-03-22 22:03:00,30.4,9.0,31.01,North,0,0.0,0.0,40,0.00,,---,0.00,VWS V14.00,2013-03-23 02:03:00,
2013-03-22 22:09:00,30.2,9.4,31.01,North,0,0.0,0.0,41,0.00,,---,0.00,VWS V14.00,2013-03-23 02:09:00,
2013-03-22 22:14:00,30.0,9.2,31.01,North,0,0.0,0.0,41,0.00,,---,0.00,VWS V14.00,2013-03-23 02:14:00,
2013-03-22 22:19:00,30.0,9.2,31.01,North,0,0.0,0.0,41,0.00,,---,0.00,VWS V14.00,2013-03-23 02:19:00,
2013-03-22 22:24:00,29.8,9.0,31.01,North,0,0.0,0.0,41,0.00,,---,0.00,VWS V14.00,2013-03-23 02:24:00,
2013-03-22 22:29:00,29.8,9.0,31.01,North,0,0.0,0.0,41,0.00,,---,0.00,VWS V14.00,2013-03-23 02:29:00,
2013-03-22 22:35:00,29.7,8.9,31.01,North,0,0.0,0.0,41,0.00,,---,0.00,VWS V14.00,2013-03-23 02:35:00,
2013-03-22 22:40:00,29.7,8.9,31.01,North,0,0.0,0.0,41,0.00,,---,0.00,VWS V14.00,2013-03-23 02:40:00,
2013-03-22 22:45:00,29.7,8.9,31.01,North,0,0.0,0.0,41,0.00,,---,0.00,VWS V14.00,2013-03-23 02:45:00,
2013-03-22 22:50:00,29.5,8.7,31.01,North,0,0.0,0.0,41,0.00,,---,0.00,VWS V14.00,2013-03-23 02:50:00,
2013-03-22 22:56:00,29.5,8.7,31.01,North,0,0.0,0.0,41,0.00,,---,0.00,VWS V14.00,2013-03-23 02:56:00,
2013-03-22 23:02:00,29.3,8.5,31.01,North,0,0.0,0.0,41,0.00,,---,0.00,VWS V14.00,2013-03-23 03:02:00,
2013-03-22 23:08:00,29.1,8.4,31.01,North,0,0.0,0.0,41,0.00,,---,0.00,VWS V14.00,2013-03-23 03:08:00,
2013-03-22 23:13:00,28.8,8.0,31.01,North,0,0.0,0.0,41,0.00,,---,0.00,VWS V14.00,2013-03-23 03:13:00,
2013-03-22 23:19:00,28.6,7.9,31.01,North,0,0.0,0.0,41,0.00,,---,0.00,VWS V14.00,2013-03-23 03:19:00,
2013-03-22 23:25:00,28.8,8.0,31.01,North,0,0.0,0.0,41,0.00,,---,0.00,VWS V14.00,2013-03-23 03:25:00,
2013-03-22 23:30:00,28.6,7.9,31.01,North,0,0.0,0.0,41,0.00,,---,0.00,VWS V14.00,2013-03-23 03:30:00,
2013-03-22 23:35:00,28.6,7.9,31.01,North,0,0.0,0.0,41,0.00,,---,0.00,VWS V14.00,2013-03-23 03:35:00,
2013-03-22 23:40:00,28.4,8.2,31.01,North,0,0.0,0.0,42,0.00,,---,0.00,VWS V14.00,2013-03-23 03:40:00,
2013-03-22 23:46:00,28.6,7.9,31.01,North,0,0.0,0.0,41,0.00,,---,0.00,VWS V14.00,2013-03-23 03:46:00,
2013-03-22 23:52:00,28.9,8.2,31.01,North,0,0.0,0.0,41,0.00,,---,0.00,VWS V14.00,2013-03-23 03:52:00,
2013-03-22 23:57:00,28.9,8.2,31.01,North,0,0.0,0.0,41,0.00,,---,0.00,VWS V14.00,2013-03-23 03:57:00,